Darstellungsparameter: Aktuell verwendete Einstellungen:
Skalierung der Graphiken ... ?
xyx+y,   Skalierungsfaktor:      Skalierung: Modus: x, Faktor: 1
Darstellungszeitraum ... ?
Vom - - bis: - -   Zeitraum: 01.06.2009 - 07.06.2009
Min/Max/Avg-Anzeige ... ?
Zeige MMA aktuell
Zeige MMA Monat
Zeige MMA alles
Zeige --A aktuell
Zeige --A Monat
Zeige --A alles
Keine MMA-Anzeige
MMA:
Keine MMA-Graphiken
MMA-Basis: 01.06.2009 - 07.06.2009
Quicknavigation für Darstellung... ?
Tage:      1T, 2T, 3T, 5T -1T -2T -3T -5T +1T +2T +3T +5T
Wochen: 1W, 2W, 3W -1W -2W -3W +1W +2W +3W
Monate: 1M, 3M, 6M -1M -3M -6M +1M +3M +6M
Jahre:    1J, 3J, 5J, 10J -1J -3J -5J -10J +1J +3J +5J +10J
Nutze für die Darstellung ... ?
Originaldaten oder Mittelwerte auf ...
Stundenbasis Tagesbasis Wochenbasis
Monatsbasis Jahresbasis      Datenbasis: Original-Daten
Darstellen als:
Statistik (Auto) Statistik J:M      Darstellung:
Zur Graphik,    zurück zur Übersicht aller Sensoren.
 
Tabellarische Datenbersicht: ?
 
Sensor: Nr:Datum:Temp:Abs-Feuchte:Windchill:Wind:
Aussen-T/F 1 01-06-2009 00:01:00 16.6 C 7.49 g/m*3 16.6 C 0 km/h
2 01-06-2009 00:13:00 16.3 C 7.49 g/m*3 16.3 C 0 km/h
3 01-06-2009 00:26:01 16.1 C 7.54 g/m*3 16.1 C 0 km/h
4 01-06-2009 00:38:01 15.9 C 7.85 g/m*3 15.9 C 0 km/h
5 01-06-2009 00:50:01 15.6 C 7.85 g/m*3 15.6 C 0 km/h
6 01-06-2009 01:02:01 15.6 C 7.98 g/m*3 15.6 C 0 km/h
7 01-06-2009 01:14:01 15.2 C 7.92 g/m*3 15.2 C 0 km/h
8 01-06-2009 01:26:01 14.9 C 7.9 g/m*3 14.9 C 0 km/h
9 01-06-2009 01:38:01 14.8 C 8.11 g/m*3 14.8 C 0 km/h
10 01-06-2009 01:50:01 14.6 C 8.01 g/m*3 14.6 C 0 km/h
11 01-06-2009 02:02:01 14.5 C 7.96 g/m*3 14.5 C 0 km/h
12 01-06-2009 02:14:01 14.3 C 8.11 g/m*3 14.3 C 0 km/h
13 01-06-2009 02:26:01 14.1 C 8.13 g/m*3 14.1 C 0 km/h
14 01-06-2009 02:38:01 13.7 C 8.05 g/m*3 13.7 C 0 km/h
15 01-06-2009 02:50:01 13.8 C 8.22 g/m*3 13.8 C 0 km/h
16 01-06-2009 03:02:01 13.6 C 8.24 g/m*3 13.6 C 0 km/h
17 01-06-2009 03:14:01 13.4 C 8.25 g/m*3 13.4 C 0 km/h
18 01-06-2009 03:26:01 13.3 C 8.2 g/m*3 13.3 C 0 km/h
19 01-06-2009 03:38:01 13.1 C 8.22 g/m*3 13.1 C 0 km/h
20 01-06-2009 03:50:01 13 C 8.28 g/m*3 13 C 0 km/h
21 01-06-2009 04:02:01 12.9 C 8.34 g/m*3 12.9 C 0 km/h
22 01-06-2009 04:14:02 12.8 C 8.4 g/m*3 12.8 C 0 km/h
23 01-06-2009 04:26:02 12.6 C 8.3 g/m*3 12.6 C 0 km/h
24 01-06-2009 04:38:02 12.5 C 8.36 g/m*3 12.5 C 0 km/h
25 01-06-2009 04:50:02 12.4 C 8.3 g/m*3 12.4 C 0 km/h
Sensor: Nr:Datum:Temp:Abs-Feuchte:Windchill:Wind:
Aussen-T/F 26 01-06-2009 05:02:02 12.2 C 8.2 g/m*3 12.2 C 0 km/h
27 01-06-2009 05:14:02 12.3 C 8.25 g/m*3 12.3 C 0 km/h
28 01-06-2009 05:26:02 12.4 C 8.41 g/m*3 12.4 C 0 km/h
29 01-06-2009 05:38:02 12.6 C 8.52 g/m*3 12.6 C 0 km/h
30 01-06-2009 05:50:02 12.8 C 8.51 g/m*3 12.8 C 0 km/h
31 01-06-2009 06:02:02 12.8 C 8.51 g/m*3 12.8 C 0 km/h
32 01-06-2009 06:14:02 13 C 8.39 g/m*3 13 C 0 km/h
33 01-06-2009 06:26:02 13.2 C 8.5 g/m*3 13.2 C 0 km/h
34 01-06-2009 06:38:02 13.2 C 8.38 g/m*3 13.2 C 0 km/h
35 01-06-2009 06:50:02 13.5 C 8.54 g/m*3 13.5 C 0 km/h
36 01-06-2009 07:02:02 13.5 C 8.54 g/m*3 13.5 C 0 km/h
37 01-06-2009 07:14:02 13.6 C 8.59 g/m*3 13.6 C 0 km/h
38 01-06-2009 07:26:02 13.8 C 8.7 g/m*3 13.8 C 0 km/h
39 01-06-2009 07:38:02 14.3 C 8.72 g/m*3 14.3 C 0 km/h
40 01-06-2009 07:50:02 14.4 C 8.65 g/m*3 14.4 C 0 km/h
41 01-06-2009 08:02:03 14.3 C 8.72 g/m*3 14.3 C 0 km/h
42 01-06-2009 08:14:03 14.5 C 8.83 g/m*3 14.5 C 0 km/h
43 01-06-2009 08:26:03 15.1 C 8.9 g/m*3 15.1 C 0 km/h
44 01-06-2009 08:38:01 15.9 C 8.94 g/m*3 15.9 C 0 km/h
45 01-06-2009 08:50:01 16.9 C 8.92 g/m*3 16.9 C 0 km/h
46 01-06-2009 09:02:00 17.1 C 8.73 g/m*3 17.1 C 0 km/h
47 01-06-2009 09:14:00 17.6 C 9 g/m*3 17.6 C 0 km/h
48 01-06-2009 09:26:01 18.2 C 8.7 g/m*3 18.2 C 0 km/h
49 01-06-2009 09:38:01 18.3 C 8.76 g/m*3 18.3 C 0 km/h
50 01-06-2009 09:50:00 18.7 C 8.81 g/m*3 18.7 C 0 km/h
Sensor: Nr:Datum:Temp:Abs-Feuchte:Windchill:Wind:
Aussen-T/F 51 01-06-2009 10:02:01 19.6 C 8.78 g/m*3 19.6 C 0 km/h
52 01-06-2009 10:14:01 20.1 C 8.52 g/m*3 20.1 C 0 km/h
53 01-06-2009 10:26:00 20.8 C 8.87 g/m*3 20.8 C 0 km/h
54 01-06-2009 10:38:00 21.7 C 9.16 g/m*3 21.7 C 0 km/h
55 01-06-2009 10:50:00 22.1 C 8.39 g/m*3 22.1 C 0 km/h
56 01-06-2009 11:14:00 22.5 C 8.39 g/m*3 22.5 C 0 km/h
57 01-06-2009 11:14:00 22.8 C 8.53 g/m*3 22.8 C 0 km/h
58 01-06-2009 11:14:00 22.5 C 8.39 g/m*3 22.5 C 0 km/h
59 01-06-2009 11:14:00 22.8 C 8.53 g/m*3 22.8 C 0 km/h
60 01-06-2009 11:26:00 22.6 C 8.44 g/m*3 22.6 C 0 km/h
61 01-06-2009 11:37:59 23.3 C 8.15 g/m*3 23.3 C 0 km/h
62 01-06-2009 11:50:59 24.5 C 8.06 g/m*3 24.5 C 0 km/h
63 01-06-2009 12:02:59 24.5 C 7.83 g/m*3 24.5 C 0 km/h
64 01-06-2009 12:14:58 25.7 C 7.42 g/m*3 25.7 C 0 km/h
65 01-06-2009 12:26:58 26.5 C 7.76 g/m*3 26.5 C 0 km/h
66 01-06-2009 12:38:59 26.8 C 7.38 g/m*3 26.8 C 0 km/h
67 01-06-2009 12:50:58 26.2 C 7.39 g/m*3 26.2 C 0 km/h
68 01-06-2009 13:02:58 25.4 C 8.24 g/m*3 25.4 C 0 km/h
69 01-06-2009 13:14:59 24.8 C 8.65 g/m*3 24.8 C 0 km/h
70 01-06-2009 13:26:59 25.6 C 8.09 g/m*3 25.6 C 0 km/h
71 01-06-2009 13:38:58 25.7 C 8.38 g/m*3 25.7 C 0 km/h
72 01-06-2009 13:50:58 24.4 C 8.46 g/m*3 24.4 C 0 km/h
73 01-06-2009 14:02:58 19.6 C 9.12 g/m*3 19.6 C 0 km/h
74 01-06-2009 14:14:58 19 C 11.73 g/m*3 19 C 0 km/h
75 01-06-2009 14:26:59 20.1 C 12.69 g/m*3 20.1 C 0 km/h
Sensor: Nr:Datum:Temp:Abs-Feuchte:Windchill:Wind:
Aussen-T/F 76 01-06-2009 14:38:57 22.4 C 11.12 g/m*3 22.4 C 0 km/h
77 01-06-2009 14:50:57 22.7 C 11.11 g/m*3 22.7 C 0 km/h
78 01-06-2009 15:02:57 22.1 C 12.1 g/m*3 22.1 C 0 km/h
79 01-06-2009 15:14:57 22.6 C 12.25 g/m*3 22.6 C 0 km/h
80 01-06-2009 15:26:57 23.7 C 11.55 g/m*3 23.7 C 0 km/h
81 01-06-2009 15:38:57 23.6 C 11.91 g/m*3 23.6 C 0 km/h
82 01-06-2009 15:50:57 24.6 C 11.25 g/m*3 24.6 C 0 km/h
83 01-06-2009 16:02:57 25.9 C 9.44 g/m*3 25.9 C 0 km/h
84 01-06-2009 16:14:56 26.9 C 8.7 g/m*3 26.9 C 0 km/h
85 01-06-2009 16:26:56 28.8 C 7.39 g/m*3 28.8 C 0 km/h
86 01-06-2009 16:38:56 29.4 C 6.75 g/m*3 29.4 C 0 km/h
87 01-06-2009 16:50:56 25.6 C 6.9 g/m*3 25.6 C 0 km/h
88 01-06-2009 17:02:56 21.6 C 11.57 g/m*3 21.6 C 0 km/h
89 01-06-2009 17:14:56 22.4 C 11.72 g/m*3 22.4 C 0 km/h
90 01-06-2009 17:26:56 23.3 C 11.5 g/m*3 23.3 C 0 km/h
91 01-06-2009 17:38:56 24.3 C 10.4 g/m*3 24.3 C 0 km/h
92 01-06-2009 17:50:56 24.7 C 9.96 g/m*3 24.7 C 0 km/h
93 01-06-2009 18:02:55 24.7 C 9.51 g/m*3 24.7 C 0 km/h
94 01-06-2009 18:14:56 25.4 C 8.95 g/m*3 25.4 C 0 km/h
95 01-06-2009 18:26:57 25.9 C 9.44 g/m*3 25.9 C 0 km/h
96 01-06-2009 18:38:55 28 C 8.16 g/m*3 28 C 0 km/h
97 01-06-2009 18:50:55 27.4 C 8.95 g/m*3 27.4 C 0 km/h
98 01-06-2009 19:02:54 25.6 C 8.81 g/m*3 25.6 C 0 km/h
99 01-06-2009 19:14:55 23.7 C 8.34 g/m*3 23.7 C 0 km/h
100 01-06-2009 19:26:55 24.2 C 8.14 g/m*3 24.2 C 0 km/h
Sensor: Nr:Datum:Temp:Abs-Feuchte:Windchill:Wind:
Aussen-T/F 101 01-06-2009 19:38:55 25.3 C 8.19 g/m*3 25.3 C 0 km/h
102 01-06-2009 19:50:54 25.3 C 7.73 g/m*3 25.3 C 0 km/h
103 01-06-2009 20:02:55 25.2 C 7.68 g/m*3 25.2 C 0 km/h
104 01-06-2009 20:14:54 24.9 C 7.78 g/m*3 24.9 C 0 km/h
105 01-06-2009 20:26:54 24.5 C 7.61 g/m*3 24.5 C 0 km/h
106 01-06-2009 20:38:54 23.7 C 7.49 g/m*3 23.7 C 0 km/h
107 01-06-2009 20:50:54 22.6 C 7.83 g/m*3 22.6 C 0 km/h
108 01-06-2009 21:02:53 22.1 C 8.59 g/m*3 22.1 C 0 km/h
109 01-06-2009 21:14:54 21.1 C 8.48 g/m*3 21.1 C 0 km/h
110 01-06-2009 21:26:54 20.3 C 8.62 g/m*3 20.3 C 0 km/h
111 01-06-2009 21:38:54 19.7 C 8.49 g/m*3 19.7 C 0 km/h
112 01-06-2009 21:50:53 19.3 C 8.63 g/m*3 19.3 C 0 km/h
113 01-06-2009 22:02:54 19 C 8.64 g/m*3 19 C 0 km/h
114 01-06-2009 22:14:53 18.6 C 8.91 g/m*3 18.6 C 0 km/h
115 01-06-2009 22:26:53 18.4 C 8.81 g/m*3 18.4 C 0 km/h
116 01-06-2009 22:39:09 18.1 C 8.96 g/m*3 18.1 C 0 km/h
117 01-06-2009 22:51:09 17.8 C 9.11 g/m*3 17.8 C 0 km/h
118 01-06-2009 23:03:09 17.4 C 8.89 g/m*3 17.4 C 0 km/h
119 01-06-2009 23:15:09 17.2 C 8.93 g/m*3 17.2 C 0 km/h
120 01-06-2009 23:27:09 17 C 9.12 g/m*3 17 C 0 km/h
121 01-06-2009 23:39:09 16.9 C 9.21 g/m*3 16.9 C 0 km/h
122 01-06-2009 23:51:09 16.6 C 9.18 g/m*3 16.6 C 0 km/h
123 02-06-2009 00:03:09 16.4 C 9.21 g/m*3 16.4 C 0 km/h
124 02-06-2009 00:15:09 16.1 C 9.18 g/m*3 16.1 C 0 km/h
125 02-06-2009 00:27:09 16 C 9.26 g/m*3 16 C 0 km/h
Sensor: Nr:Datum:Temp:Abs-Feuchte:Windchill:Wind:
Aussen-T/F 126 02-06-2009 00:39:09 15.8 C 9.56 g/m*3 15.8 C 0 km/h
127 02-06-2009 00:51:09 15.5 C 9.65 g/m*3 15.5 C 0 km/h
128 02-06-2009 01:03:09 15.3 C 9.66 g/m*3 15.3 C 0 km/h
129 02-06-2009 01:15:09 15 C 9.62 g/m*3 15 C 0 km/h
130 02-06-2009 01:27:10 14.9 C 9.69 g/m*3 14.9 C 0 km/h
131 02-06-2009 01:39:10 14.7 C 9.82 g/m*3 14.7 C 0 km/h
132 02-06-2009 01:51:10 14.6 C 9.76 g/m*3 14.6 C 0 km/h
133 02-06-2009 02:03:10 14.4 C 9.64 g/m*3 14.4 C 0 km/h
134 02-06-2009 02:15:10 14.1 C 9.59 g/m*3 14.1 C 0 km/h
135 02-06-2009 02:27:10 14 C 9.65 g/m*3 14 C 0 km/h
136 02-06-2009 02:39:10 13.7 C 9.59 g/m*3 13.7 C 0 km/h
137 02-06-2009 02:51:10 13.7 C 9.59 g/m*3 13.7 C 0 km/h
138 02-06-2009 03:03:10 13.7 C 9.59 g/m*3 13.7 C 0 km/h
139 02-06-2009 03:15:10 13.5 C 9.59 g/m*3 13.5 C 0 km/h
140 02-06-2009 03:27:10 13.4 C 9.53 g/m*3 13.4 C 0 km/h
141 02-06-2009 03:39:10 13.4 C 9.53 g/m*3 13.4 C 0 km/h
142 02-06-2009 03:51:10 13.4 C 9.53 g/m*3 13.4 C 0 km/h
143 02-06-2009 04:03:10 13.4 C 9.42 g/m*3 13.4 C 0 km/h
144 02-06-2009 04:15:10 13.2 C 9.3 g/m*3 13.2 C 0 km/h
145 02-06-2009 04:27:10 13 C 9.19 g/m*3 13 C 0 km/h
146 02-06-2009 04:39:10 12.9 C 9.35 g/m*3 12.9 C 0 km/h
147 02-06-2009 04:51:10 12.8 C 9.3 g/m*3 12.8 C 0 km/h
148 02-06-2009 05:03:10 12.7 C 9.35 g/m*3 12.7 C 0 km/h
149 02-06-2009 05:15:11 12.5 C 9.24 g/m*3 12.5 C 0 km/h
150 02-06-2009 05:27:11 12.4 C 9.18 g/m*3 12.4 C 0 km/h
Sensor: Nr:Datum:Temp:Abs-Feuchte:Windchill:Wind:
Aussen-T/F 151 02-06-2009 05:39:11 12.4 C 9.18 g/m*3 12.4 C 0 km/h
152 02-06-2009 05:51:11 12.4 C 9.18 g/m*3 12.4 C 0 km/h
153 02-06-2009 06:03:11 12.4 C 9.18 g/m*3 12.4 C 0 km/h
154 02-06-2009 06:15:11 12.6 C 9.18 g/m*3 12.6 C 0 km/h
155 02-06-2009 06:27:11 12.9 C 8.9 g/m*3 12.9 C 0 km/h
156 02-06-2009 06:39:54 13.1 C 8.22 g/m*3 13.1 C 0 km/h
157 02-06-2009 06:51:54 13.5 C 7.95 g/m*3 13.5 C 0 km/h
158 02-06-2009 07:03:53 13.6 C 7.77 g/m*3 13.6 C 0 km/h
159 02-06-2009 07:15:54 13.7 C 7.7 g/m*3 13.7 C 0 km/h
160 02-06-2009 07:27:54 13.8 C 7.86 g/m*3 13.8 C 0 km/h
161 02-06-2009 07:39:53 13.7 C 7.7 g/m*3 13.7 C 0 km/h
162 02-06-2009 07:51:53 14 C 7.6 g/m*3 14 C 0 km/h
163 02-06-2009 08:03:53 14.2 C 7.82 g/m*3 14.2 C 0 km/h
164 02-06-2009 08:15:53 14.4 C 7.91 g/m*3 14.4 C 0 km/h
165 02-06-2009 08:27:53 14.6 C 7.63 g/m*3 14.6 C 0 km/h
166 02-06-2009 08:39:53 14.7 C 7.68 g/m*3 14.7 C 0 km/h
167 02-06-2009 08:51:53 15.1 C 7.74 g/m*3 15.1 C 0 km/h
168 02-06-2009 09:03:53 15.5 C 7.8 g/m*3 15.5 C 0 km/h
169 02-06-2009 09:15:52 15.8 C 7.81 g/m*3 15.8 C 0 km/h
170 02-06-2009 09:27:52 16 C 7.63 g/m*3 16 C 0 km/h
171 02-06-2009 09:39:53 16.5 C 7.86 g/m*3 16.5 C 0 km/h
172 02-06-2009 09:51:52 17 C 7.81 g/m*3 17 C 0 km/h
173 02-06-2009 10:03:52 17.6 C 7.8 g/m*3 17.6 C 0 km/h
174 02-06-2009 10:15:51 18 C 7.83 g/m*3 18 C 0 km/h
175 02-06-2009 10:27:51 18.3 C 7.82 g/m*3 18.3 C 0 km/h
Sensor: Nr:Datum:Temp:Abs-Feuchte:Windchill:Wind:
Aussen-T/F 176 02-06-2009 10:39:52 18.8 C 7.73 g/m*3 18.8 C 0 km/h
177 02-06-2009 10:51:51 18.8 C 7.57 g/m*3 18.8 C 0 km/h
178 02-06-2009 11:03:51 19.3 C 7.8 g/m*3 19.3 C 0 km/h
179 02-06-2009 11:15:52 19.5 C 7.89 g/m*3 19.5 C 0 km/h
180 02-06-2009 11:27:52 20.6 C 8.23 g/m*3 20.6 C 0 km/h
181 02-06-2009 11:39:51 20.5 C 8.19 g/m*3 20.5 C 0 km/h
182 02-06-2009 11:51:51 20.8 C 8.15 g/m*3 20.8 C 0 km/h
183 02-06-2009 12:03:51 21.8 C 7.87 g/m*3 21.8 C 0 km/h
184 02-06-2009 12:15:51 22.4 C 7.75 g/m*3 22.4 C 0 km/h
185 02-06-2009 12:27:51 23.8 C 7.74 g/m*3 23.8 C 0 km/h
186 02-06-2009 12:39:50 23.2 C 7.28 g/m*3 23.2 C 0 km/h
187 02-06-2009 12:51:51 23.8 C 7.31 g/m*3 23.8 C 0 km/h
188 02-06-2009 13:03:50 24.1 C 7 g/m*3 24.1 C 0 km/h
189 02-06-2009 13:15:50 24.3 C 6.86 g/m*3 24.3 C 0 km/h
190 02-06-2009 13:27:50 24.4 C 6.45 g/m*3 24.4 C 0 km/h
191 02-06-2009 13:39:50 24.6 C 5.85 g/m*3 24.6 C 0 km/h
192 02-06-2009 13:51:50 24.4 C 5.56 g/m*3 24.4 C 0 km/h
193 02-06-2009 14:03:50 24.3 C 5.53 g/m*3 24.3 C 0 km/h
194 02-06-2009 14:15:49 24.6 C 5.85 g/m*3 24.6 C 0 km/h
195 02-06-2009 14:27:49 24 C 5.87 g/m*3 24 C 0 km/h
196 02-06-2009 14:39:50 25.2 C 5.82 g/m*3 25.2 C 0 km/h
197 02-06-2009 14:51:49 24.6 C 5.63 g/m*3 24.6 C 0 km/h
198 02-06-2009 15:03:49 24.7 C 5.21 g/m*3 24.7 C 0 km/h
199 02-06-2009 15:15:48 25.4 C 5.41 g/m*3 25.4 C 0 km/h
200 02-06-2009 15:27:48 25.7 C 5.03 g/m*3 25.7 C 0 km/h
Sensor: Nr:Datum:Temp:Abs-Feuchte:Windchill:Wind:
Aussen-T/F 201 02-06-2009 15:39:49 25.9 C 5.57 g/m*3 25.9 C 0 km/h
202 02-06-2009 15:51:48 27 C 5.4 g/m*3 27 C 0 km/h
203 02-06-2009 16:03:48 26.5 C 5.76 g/m*3 26.5 C 0 km/h
204 02-06-2009 16:15:49 26 C 5.11 g/m*3 26 C 0 km/h
205 02-06-2009 16:27:49 26.7 C 5.06 g/m*3 26.7 C 0 km/h
206 02-06-2009 16:39:48 27.1 C 5.18 g/m*3 27.1 C 0 km/h
207 02-06-2009 16:51:48 27 C 5.15 g/m*3 27 C 0 km/h
208 02-06-2009 17:03:48 27.8 C 5.38 g/m*3 27.8 C 0 km/h
209 02-06-2009 17:15:48 27.5 C 5.29 g/m*3 27.5 C 0 km/h
210 02-06-2009 17:27:49 27.1 C 5.18 g/m*3 27.1 C 0 km/h
211 02-06-2009 17:39:47 27.8 C 5.38 g/m*3 27.8 C 0 km/h
212 02-06-2009 17:51:48 27.6 C 5.32 g/m*3 27.6 C 0 km/h
213 02-06-2009 18:03:48 27.8 C 5.38 g/m*3 27.8 C 0 km/h
214 02-06-2009 18:15:47 28.1 C 5.47 g/m*3 28.1 C 0 km/h
215 02-06-2009 18:27:47 28.5 C 5.59 g/m*3 28.5 C 0 km/h
216 02-06-2009 18:39:47 29.2 C 5.81 g/m*3 29.2 C 0 km/h
217 02-06-2009 18:51:47 27.5 C 5.29 g/m*3 27.5 C 0 km/h
218 02-06-2009 19:03:47 28.6 C 5.62 g/m*3 28.6 C 0 km/h
219 02-06-2009 19:15:46 28.2 C 5.5 g/m*3 28.2 C 0 km/h
220 02-06-2009 19:27:46 28.1 C 5.47 g/m*3 28.1 C 0 km/h
221 02-06-2009 19:39:47 27.4 C 5.26 g/m*3 27.4 C 0 km/h
222 02-06-2009 19:51:46 27.9 C 5.68 g/m*3 27.9 C 0 km/h
223 02-06-2009 20:03:46 27.6 C 5.59 g/m*3 27.6 C 0 km/h
224 02-06-2009 20:15:46 27.3 C 5.49 g/m*3 27.3 C 0 km/h
225 02-06-2009 20:27:46 26.4 C 5.73 g/m*3 26.4 C 0 km/h
Sensor: Nr:Datum:Temp:Abs-Feuchte:Windchill:Wind:
Aussen-T/F 226 02-06-2009 20:39:46 25.3 C 5.85 g/m*3 25.3 C 0 km/h
227 02-06-2009 20:51:46 24.2 C 5.72 g/m*3 24.2 C 0 km/h
228 02-06-2009 21:03:45 23.9 C 5.62 g/m*3 23.9 C 0 km/h
229 02-06-2009 21:15:46 23.3 C 5.23 g/m*3 23.3 C 0 km/h
230 02-06-2009 21:27:46 22.7 C 5.46 g/m*3 22.7 C 0 km/h
231 02-06-2009 21:39:45 22.4 C 5.56 g/m*3 22.4 C 0 km/h
232 02-06-2009 21:51:13 22.1 C 5.47 g/m*3 22.1 C 0 km/h
233 02-06-2009 22:03:13 21.7 C 5.72 g/m*3 21.7 C 0 km/h
234 02-06-2009 22:15:13 21.5 C 5.66 g/m*3 21.5 C 0 km/h
235 02-06-2009 22:27:13 21.2 C 5.56 g/m*3 21.2 C 0 km/h
236 02-06-2009 22:39:13 20.9 C 5.83 g/m*3 20.9 C 0 km/h
237 02-06-2009 22:51:13 20.6 C 5.91 g/m*3 20.6 C 0 km/h
238 02-06-2009 23:03:13 20.3 C 5.8 g/m*3 20.3 C 0 km/h
239 02-06-2009 23:15:13 20.2 C 5.77 g/m*3 20.2 C 0 km/h
240 02-06-2009 23:27:45 19.9 C 5.84 g/m*3 19.9 C 0 km/h
241 02-06-2009 23:39:45 19.7 C 5.77 g/m*3 19.7 C 0 km/h
242 02-06-2009 23:51:45 19.9 C 6.01 g/m*3 19.9 C 0 km/h
243 03-06-2009 00:03:45 19.7 C 5.77 g/m*3 19.7 C 0 km/h
244 03-06-2009 00:15:45 19.4 C 5.67 g/m*3 19.4 C 0 km/h
245 03-06-2009 00:27:45 19 C 5.38 g/m*3 19 C 0 km/h
246 03-06-2009 00:39:44 18.6 C 5.57 g/m*3 18.6 C 0 km/h
247 03-06-2009 00:51:45 18.2 C 5.44 g/m*3 18.2 C 0 km/h
248 03-06-2009 01:03:44 17.9 C 5.5 g/m*3 17.9 C 0 km/h
249 03-06-2009 01:15:44 17.7 C 5.43 g/m*3 17.7 C 0 km/h
250 03-06-2009 01:27:44 17.3 C 5.3 g/m*3 17.3 C 0 km/h
Sensor: Nr:Datum:Temp:Abs-Feuchte:Windchill:Wind:
Aussen-T/F 251 03-06-2009 01:39:44 17.1 C 5.24 g/m*3 17.1 C 0 km/h
252 03-06-2009 01:51:44 16.8 C 5.29 g/m*3 16.8 C 0 km/h
253 03-06-2009 02:03:44 16.4 C 5.16 g/m*3 16.4 C 0 km/h
254 03-06-2009 02:15:43 16 C 5.18 g/m*3 16 C 0 km/h
255 03-06-2009 02:27:43 15.7 C 5.22 g/m*3 15.7 C 0 km/h
256 03-06-2009 02:39:44 15.4 C 5.65 g/m*3 15.4 C 0 km/h
257 03-06-2009 02:52:45 15.1 C 5.81 g/m*3 15.1 C 0 km/h
258 03-06-2009 03:04:45 15 C 5.77 g/m*3 15 C 0 km/h
259 03-06-2009 03:16:45 14.6 C 5.88 g/m*3 14.6 C 0 km/h
260 03-06-2009 03:28:45 14.4 C 5.81 g/m*3 14.4 C 0 km/h
261 03-06-2009 03:40:45 14.2 C 5.74 g/m*3 14.2 C 0 km/h
262 03-06-2009 03:52:45 13.8 C 5.96 g/m*3 13.8 C 0 km/h
263 03-06-2009 04:04:45 13.7 C 6.04 g/m*3 13.7 C 0 km/h
264 03-06-2009 04:16:44 13.6 C 6 g/m*3 13.6 C 0 km/h
265 03-06-2009 04:28:44 13.5 C 5.97 g/m*3 13.5 C 0 km/h
266 03-06-2009 04:40:45 13.3 C 6.01 g/m*3 13.3 C 0 km/h
267 03-06-2009 04:52:44 13.1 C 5.93 g/m*3 13.1 C 0 km/h
268 03-06-2009 05:04:44 13 C 5.9 g/m*3 13 C 0 km/h
269 03-06-2009 05:16:44 13 C 5.9 g/m*3 13 C 0 km/h
270 03-06-2009 05:28:44 12.8 C 5.94 g/m*3 12.8 C 0 km/h
271 03-06-2009 05:40:44 12.7 C 6.01 g/m*3 12.7 C 0 km/h
272 03-06-2009 05:52:44 12.7 C 6.01 g/m*3 12.7 C 0 km/h
273 03-06-2009 06:04:43 12.9 C 6.2 g/m*3 12.9 C 0 km/h
274 03-06-2009 06:16:43 13 C 6.24 g/m*3 13 C 0 km/h
275 03-06-2009 06:28:43 13 C 6.24 g/m*3 13 C 0 km/h
Sensor: Nr:Datum:Temp:Abs-Feuchte:Windchill:Wind:
Aussen-T/F 276 03-06-2009 06:40:43 13 C 6.35 g/m*3 13 C 0 km/h
277 03-06-2009 06:52:43 12.9 C 6.54 g/m*3 12.9 C 0 km/h
278 03-06-2009 07:04:42 12.8 C 6.27 g/m*3 12.8 C 0 km/h
279 03-06-2009 07:16:43 12.7 C 6.35 g/m*3 12.7 C 0 km/h
280 03-06-2009 07:28:43 12.5 C 6.05 g/m*3 12.5 C 0 km/h
281 03-06-2009 07:40:43 12.8 C 6.16 g/m*3 12.8 C 0 km/h
282 03-06-2009 07:52:42 12.9 C 6.2 g/m*3 12.9 C 0 km/h
283 03-06-2009 08:04:43 12.8 C 5.94 g/m*3 12.8 C 0 km/h
284 03-06-2009 08:16:42 12.8 C 5.94 g/m*3 12.8 C 0 km/h
285 03-06-2009 08:28:42 13 C 5.9 g/m*3 13 C 0 km/h
286 03-06-2009 08:40:42 13 C 5.67 g/m*3 13 C 0 km/h
287 03-06-2009 08:52:42 13.1 C 5.48 g/m*3 13.1 C 0 km/h
288 03-06-2009 09:04:42 13.5 C 5.5 g/m*3 13.5 C 0 km/h
289 03-06-2009 09:16:41 13.9 C 5.39 g/m*3 13.9 C 0 km/h
290 03-06-2009 09:28:41 13.9 C 5.04 g/m*3 13.9 C 0 km/h
291 03-06-2009 09:40:41 14.6 C 5.13 g/m*3 14.6 C 0 km/h
292 03-06-2009 09:52:41 14.7 C 5.67 g/m*3 14.7 C 0 km/h
293 03-06-2009 10:04:41 14.2 C 5.62 g/m*3 14.2 C 0 km/h
294 03-06-2009 10:16:41 14.9 C 5.23 g/m*3 14.9 C 0 km/h
295 03-06-2009 10:28:41 14.6 C 5.63 g/m*3 14.6 C 0 km/h
296 03-06-2009 10:40:41 15 C 5.39 g/m*3 15 C 0 km/h
297 03-06-2009 10:52:41 15.4 C 5.26 g/m*3 15.4 C 0 km/h
298 03-06-2009 11:04:40 14.9 C 5.23 g/m*3 14.9 C 0 km/h
299 03-06-2009 11:16:41 15.2 C 5.19 g/m*3 15.2 C 0 km/h
300 03-06-2009 11:28:41 16 C 5.31 g/m*3 16 C 0 km/h
Sensor: Nr:Datum:Temp:Abs-Feuchte:Windchill:Wind:
Aussen-T/F 301 03-06-2009 11:40:40 16.8 C 5.43 g/m*3 16.8 C 0 km/h
302 03-06-2009 11:52:40 17 C 5.21 g/m*3 17 C 0 km/h
303 03-06-2009 12:04:40 16.7 C 4.97 g/m*3 16.7 C 0 km/h
304 03-06-2009 12:16:40 16.8 C 4.86 g/m*3 16.8 C 0 km/h
305 03-06-2009 12:28:40 17.7 C 4.98 g/m*3 17.7 C 0 km/h
306 03-06-2009 12:40:39 17.9 C 4.73 g/m*3 17.9 C 0 km/h
307 03-06-2009 12:52:40 18.8 C 4.83 g/m*3 18.8 C 0 km/h
308 03-06-2009 13:04:40 17.3 C 4.42 g/m*3 17.3 C 0 km/h
309 03-06-2009 13:16:39 18.2 C 4.66 g/m*3 18.2 C 0 km/h
310 03-06-2009 13:28:39 19.5 C 4.53 g/m*3 19.5 C 0 km/h
311 03-06-2009 13:40:39 18.4 C 4.09 g/m*3 18.4 C 0 km/h
312 03-06-2009 13:52:39 19.8 C 4.27 g/m*3 19.8 C 0 km/h
313 03-06-2009 14:04:39 19.3 C 4.15 g/m*3 19.3 C 0 km/h
314 03-06-2009 14:16:38 20.1 C 4.35 g/m*3 20.1 C 0 km/h
315 03-06-2009 14:28:38 19.3 C 4.31 g/m*3 19.3 C 0 km/h
316 03-06-2009 14:40:39 19.1 C 4.43 g/m*3 19.1 C 0 km/h
317 03-06-2009 14:52:38 19.7 C 4.92 g/m*3 19.7 C 0 km/h
318 03-06-2009 15:04:38 20.5 C 4.45 g/m*3 20.5 C 0 km/h
319 03-06-2009 15:16:39 20 C 4.67 g/m*3 20 C 0 km/h
320 03-06-2009 15:28:39 20.8 C 4.53 g/m*3 20.8 C 0 km/h
321 03-06-2009 15:40:38 20.4 C 4.6 g/m*3 20.4 C 0 km/h
322 03-06-2009 15:52:37 20.9 C 4.55 g/m*3 20.9 C 0 km/h
323 03-06-2009 16:04:38 20.1 C 4.52 g/m*3 20.1 C 0 km/h
324 03-06-2009 16:16:38 20.4 C 4.42 g/m*3 20.4 C 0 km/h
325 03-06-2009 16:28:38 20.2 C 4.55 g/m*3 20.2 C 0 km/h
Sensor: Nr:Datum:Temp:Abs-Feuchte:Windchill:Wind:
Aussen-T/F 326 03-06-2009 16:40:37 20.3 C 4.75 g/m*3 20.3 C 0 km/h
327 03-06-2009 16:52:38 20 C 4.32 g/m*3 20 C 0 km/h
328 03-06-2009 17:04:37 20.3 C 4.57 g/m*3 20.3 C 0 km/h
329 03-06-2009 17:16:37 20.6 C 4.65 g/m*3 20.6 C 0 km/h
330 03-06-2009 17:28:37 20.7 C 4.32 g/m*3 20.7 C 0 km/h
331 03-06-2009 17:40:36 19.4 C 4.34 g/m*3 19.4 C 0 km/h
332 03-06-2009 17:52:37 20.6 C 4.12 g/m*3 20.6 C 0 km/h
333 03-06-2009 18:04:36 19.2 C 3.79 g/m*3 19.2 C 0 km/h
334 03-06-2009 18:16:36 20.3 C 4.05 g/m*3 20.3 C 0 km/h
335 03-06-2009 18:28:36 19.3 C 3.98 g/m*3 19.3 C 0 km/h
336 03-06-2009 18:40:37 20 C 4.32 g/m*3 20 C 0 km/h
337 03-06-2009 18:52:36 19 C 4.24 g/m*3 19 C 0 km/h
338 03-06-2009 19:04:36 19.1 C 4.26 g/m*3 19.1 C 0 km/h
339 03-06-2009 19:16:36 18.8 C 4.51 g/m*3 18.8 C 0 km/h
340 03-06-2009 19:28:36 18.1 C 4.64 g/m*3 18.1 C 0 km/h
341 03-06-2009 19:40:36 18 C 4.61 g/m*3 18 C 0 km/h
342 03-06-2009 19:52:36 18 C 4.76 g/m*3 18 C 0 km/h
343 03-06-2009 20:04:36 17.7 C 4.83 g/m*3 17.7 C 0 km/h
344 03-06-2009 20:16:36 16.9 C 5.03 g/m*3 16.9 C 0 km/h
345 03-06-2009 20:28:36 16.6 C 5.09 g/m*3 16.6 C 0 km/h
346 03-06-2009 20:40:35 16.4 C 5.02 g/m*3 16.4 C 0 km/h
347 03-06-2009 20:52:34 16.5 C 4.91 g/m*3 16.5 C 0 km/h
348 03-06-2009 21:04:35 16.1 C 4.8 g/m*3 16.1 C 0 km/h
349 03-06-2009 21:16:35 16 C 4.77 g/m*3 16 C 0 km/h
350 03-06-2009 21:28:35 15.9 C 4.88 g/m*3 15.9 C 0 km/h
Sensor: Nr:Datum:Temp:Abs-Feuchte:Windchill:Wind:
Aussen-T/F 351 03-06-2009 21:40:34 15.5 C 4.63 g/m*3 15.5 C 0 km/h
352 03-06-2009 21:52:35 15.4 C 4.73 g/m*3 15.4 C 0 km/h
353 03-06-2009 22:05:35 15.3 C 4.7 g/m*3 15.3 C 0 km/h
354 03-06-2009 22:17:35 15.2 C 4.67 g/m*3 15.2 C 0 km/h
355 03-06-2009 22:29:35 15 C 4.62 g/m*3 15 C 0 km/h
356 03-06-2009 22:41:35 14.7 C 4.78 g/m*3 14.7 C 0 km/h
357 03-06-2009 22:53:35 14.9 C 4.84 g/m*3 14.9 C 0 km/h
358 03-06-2009 23:05:35 14.8 C 4.69 g/m*3 14.8 C 0 km/h
359 03-06-2009 23:17:35 14.6 C 4.88 g/m*3 14.6 C 0 km/h
360 03-06-2009 23:29:36 14.5 C 4.97 g/m*3 14.5 C 0 km/h
361 03-06-2009 23:41:36 14.2 C 5.01 g/m*3 14.2 C 0 km/h
362 03-06-2009 23:53:36 14 C 5.07 g/m*3 14 C 0 km/h
363 04-06-2009 00:05:36 13.7 C 5.21 g/m*3 13.7 C 0 km/h
364 04-06-2009 00:17:36 13.7 C 5.33 g/m*3 13.7 C 0 km/h
365 04-06-2009 00:29:36 13.4 C 5.23 g/m*3 13.4 C 0 km/h
366 04-06-2009 00:41:36 13.1 C 5.14 g/m*3 13.1 C 0 km/h
367 04-06-2009 00:53:36 13 C 5.22 g/m*3 13 C 0 km/h
368 04-06-2009 01:05:36 12.7 C 5.34 g/m*3 12.7 C 0 km/h
369 04-06-2009 01:17:36 12.6 C 5.42 g/m*3 12.6 C 0 km/h
370 04-06-2009 01:29:36 12.7 C 5.45 g/m*3 12.7 C 0 km/h
371 04-06-2009 01:41:36 12.6 C 5.42 g/m*3 12.6 C 0 km/h
372 04-06-2009 01:53:36 12.5 C 5.5 g/m*3 12.5 C 0 km/h
373 04-06-2009 02:05:36 12.5 C 4.95 g/m*3 12.5 C 0 km/h
374 04-06-2009 02:17:36 12.4 C 4.7 g/m*3 12.4 C 0 km/h
375 04-06-2009 02:29:36 12 C 4.48 g/m*3 12 C 0 km/h
Sensor: Nr:Datum:Temp:Abs-Feuchte:Windchill:Wind:
Aussen-T/F 376 04-06-2009 02:41:36 11.9 C 4.45 g/m*3 11.9 C 0 km/h
377 04-06-2009 02:53:36 11.7 C 4.18 g/m*3 11.7 C 0 km/h
378 04-06-2009 03:05:36 11.5 C 4.13 g/m*3 11.5 C 0 km/h
379 04-06-2009 03:17:37 11.2 C 3.95 g/m*3 11.2 C 0 km/h
380 04-06-2009 03:29:37 11 C 4 g/m*3 11 C 0 km/h
381 04-06-2009 03:41:37 10.8 C 4.15 g/m*3 10.8 C 0 km/h
382 04-06-2009 03:53:37 10.9 C 4.28 g/m*3 10.9 C 0 km/h
383 04-06-2009 04:05:37 10.8 C 4.15 g/m*3 10.8 C 0 km/h
384 04-06-2009 04:17:37 10.7 C 4.22 g/m*3 10.7 C 0 km/h
385 04-06-2009 04:29:37 10.6 C 4.29 g/m*3 10.6 C 0 km/h
386 04-06-2009 04:41:37 10.6 C 4.39 g/m*3 10.6 C 0 km/h
387 04-06-2009 04:53:37 10.7 C 4.62 g/m*3 10.7 C 0 km/h
388 04-06-2009 05:05:37 10.5 C 4.85 g/m*3 10.5 C 0 km/h
389 04-06-2009 05:17:37 10.5 C 4.95 g/m*3 10.5 C 0 km/h
390 04-06-2009 05:29:37 10.6 C 5.08 g/m*3 10.6 C 0 km/h
391 04-06-2009 05:41:37 10.7 C 5.11 g/m*3 10.7 C 0 km/h
392 04-06-2009 05:53:37 10.7 C 5.01 g/m*3 10.7 C 0 km/h
393 04-06-2009 06:05:37 10.7 C 5.11 g/m*3 10.7 C 0 km/h
394 04-06-2009 06:17:37 10.7 C 5.01 g/m*3 10.7 C 0 km/h
395 04-06-2009 06:29:37 10.5 C 4.75 g/m*3 10.5 C 0 km/h
396 04-06-2009 06:41:37 10.6 C 4.78 g/m*3 10.6 C 0 km/h
397 04-06-2009 06:53:35 10.7 C 4.91 g/m*3 10.7 C 0 km/h
398 04-06-2009 07:05:35 10.7 C 4.91 g/m*3 10.7 C 0 km/h
399 04-06-2009 07:17:35 11 C 4.8 g/m*3 11 C 0 km/h
400 04-06-2009 07:29:35 10.8 C 5.04 g/m*3 10.8 C 0 km/h
Sensor: Nr:Datum:Temp:Abs-Feuchte:Windchill:Wind:
Aussen-T/F 401 04-06-2009 07:41:35 10.8 C 5.34 g/m*3 10.8 C 0 km/h
402 04-06-2009 07:53:35 11 C 5.31 g/m*3 11 C 0 km/h
403 04-06-2009 08:05:34 11.6 C 5.4 g/m*3 11.6 C 0 km/h
404 04-06-2009 08:17:34 11.8 C 5.37 g/m*3 11.8 C 0 km/h
405 04-06-2009 08:29:34 11.9 C 5.3 g/m*3 11.9 C 0 km/h
406 04-06-2009 08:41:34 12.2 C 5.18 g/m*3 12.2 C 0 km/h
407 04-06-2009 08:53:34 12.5 C 5.17 g/m*3 12.5 C 0 km/h
408 04-06-2009 09:05:33 13 C 4.88 g/m*3 13 C 0 km/h
409 04-06-2009 09:17:34 12.8 C 4.59 g/m*3 12.8 C 0 km/h
410 04-06-2009 09:29:34 12.3 C 4.13 g/m*3 12.3 C 0 km/h
411 04-06-2009 09:41:34 12.7 C 4.23 g/m*3 12.7 C 0 km/h
412 04-06-2009 09:53:33 12.9 C 4.51 g/m*3 12.9 C 0 km/h
413 04-06-2009 10:05:34 13 C 4.2 g/m*3 13 C 0 km/h
414 04-06-2009 10:17:33 13.1 C 4.45 g/m*3 13.1 C 0 km/h
415 04-06-2009 10:29:33 14.1 C 4.49 g/m*3 14.1 C 0 km/h
416 04-06-2009 10:41:33 13.5 C 4.33 g/m*3 13.5 C 0 km/h
417 04-06-2009 10:53:33 13.2 C 4.36 g/m*3 13.2 C 0 km/h
418 04-06-2009 11:05:33 14 C 4.46 g/m*3 14 C 0 km/h
419 04-06-2009 11:17:32 14.7 C 4.53 g/m*3 14.7 C 0 km/h
420 04-06-2009 11:29:32 13.3 C 4.04 g/m*3 13.3 C 0 km/h
421 04-06-2009 11:41:32 13.1 C 3.99 g/m*3 13.1 C 0 km/h
422 04-06-2009 11:53:32 13.5 C 4.33 g/m*3 13.5 C 0 km/h
423 04-06-2009 12:05:32 14.7 C 4.53 g/m*3 14.7 C 0 km/h
424 04-06-2009 12:17:32 14.5 C 4.35 g/m*3 14.5 C 0 km/h
425 04-06-2009 12:29:32 14.6 C 4.25 g/m*3 14.6 C 0 km/h
Sensor: Nr:Datum:Temp:Abs-Feuchte:Windchill:Wind:
Aussen-T/F 426 04-06-2009 12:41:32 14.4 C 3.96 g/m*3 14.4 C 0 km/h
427 04-06-2009 12:53:32 14.7 C 4.28 g/m*3 14.7 C 0 km/h
428 04-06-2009 13:05:31 14.7 C 4.41 g/m*3 14.7 C 0 km/h
429 04-06-2009 13:17:32 15.7 C 4.01 g/m*3 15.7 C 0 km/h
430 04-06-2009 13:29:32 15.6 C 3.72 g/m*3 15.6 C 0 km/h
431 04-06-2009 13:41:31 14.9 C 3.95 g/m*3 14.9 C 0 km/h
432 04-06-2009 13:53:31 14.4 C 3.96 g/m*3 14.4 C 0 km/h
433 04-06-2009 14:05:31 15.1 C 4.13 g/m*3 15.1 C 0 km/h
434 04-06-2009 14:17:31 16.2 C 4.14 g/m*3 16.2 C 0 km/h
435 04-06-2009 14:29:31 15.3 C 3.79 g/m*3 15.3 C 0 km/h
436 04-06-2009 14:41:31 14.8 C 3.67 g/m*3 14.8 C 0 km/h
437 04-06-2009 14:53:30 15.8 C 3.9 g/m*3 15.8 C 0 km/h
438 04-06-2009 15:05:30 16.3 C 4.16 g/m*3 16.3 C 0 km/h
439 04-06-2009 15:17:30 17.5 C 3.88 g/m*3 17.5 C 0 km/h
440 04-06-2009 15:29:30 16.1 C 3.56 g/m*3 16.1 C 0 km/h
441 04-06-2009 15:41:30 15.9 C 3.79 g/m*3 15.9 C 0 km/h
442 04-06-2009 15:53:30 16.4 C 3.77 g/m*3 16.4 C 0 km/h
443 04-06-2009 16:05:30 16.3 C 3.75 g/m*3 16.3 C 0 km/h
444 04-06-2009 16:17:30 16.2 C 3.59 g/m*3 16.2 C 0 km/h
445 04-06-2009 16:29:30 17.2 C 3.66 g/m*3 17.2 C 0 km/h
446 04-06-2009 16:41:30 16.5 C 3.51 g/m*3 16.5 C 0 km/h
447 04-06-2009 16:53:29 16.2 C 3.72 g/m*3 16.2 C 0 km/h
448 04-06-2009 17:05:29 16.1 C 3.84 g/m*3 16.1 C 0 km/h
449 04-06-2009 17:17:29 16.4 C 3.91 g/m*3 16.4 C 0 km/h
450 04-06-2009 17:29:29 15.6 C 3.86 g/m*3 15.6 C 0 km/h
Sensor: Nr:Datum:Temp:Abs-Feuchte:Windchill:Wind:
Aussen-T/F 451 04-06-2009 17:41:29 15.6 C 3.99 g/m*3 15.6 C 0 km/h
452 04-06-2009 17:53:28 16.2 C 4.14 g/m*3 16.2 C 0 km/h
453 04-06-2009 18:05:29 16 C 4.09 g/m*3 16 C 0 km/h
454 04-06-2009 18:17:29 15.8 C 4.17 g/m*3 15.8 C 0 km/h
455 04-06-2009 18:29:29 16.1 C 4.25 g/m*3 16.1 C 0 km/h
456 04-06-2009 18:41:29 15.4 C 4.07 g/m*3 15.4 C 0 km/h
457 04-06-2009 18:53:28 15.7 C 4.28 g/m*3 15.7 C 0 km/h
458 04-06-2009 19:05:28 15.3 C 4.18 g/m*3 15.3 C 0 km/h
459 04-06-2009 19:17:28 15.4 C 4.2 g/m*3 15.4 C 0 km/h
460 04-06-2009 19:29:28 15.4 C 4.34 g/m*3 15.4 C 0 km/h
461 04-06-2009 19:41:28 14.7 C 4.41 g/m*3 14.7 C 0 km/h
462 04-06-2009 19:53:28 15.1 C 4.52 g/m*3 15.1 C 0 km/h
463 04-06-2009 20:05:28 14.9 C 4.59 g/m*3 14.9 C 0 km/h
464 04-06-2009 20:17:27 14.9 C 4.59 g/m*3 14.9 C 0 km/h
465 04-06-2009 20:29:27 14.7 C 4.66 g/m*3 14.7 C 0 km/h
466 04-06-2009 20:41:27 14.5 C 4.73 g/m*3 14.5 C 0 km/h
467 04-06-2009 20:53:27 14.1 C 4.61 g/m*3 14.1 C 0 km/h
468 04-06-2009 21:05:27 14 C 4.7 g/m*3 14 C 0 km/h
469 04-06-2009 21:17:27 13.8 C 4.77 g/m*3 13.8 C 0 km/h
470 04-06-2009 21:29:27 13.7 C 4.86 g/m*3 13.7 C 0 km/h
471 04-06-2009 21:41:27 13.5 C 4.91 g/m*3 13.5 C 0 km/h
472 04-06-2009 21:53:27 13.5 C 5.03 g/m*3 13.5 C 0 km/h
473 04-06-2009 22:06:22 13.3 C 4.97 g/m*3 13.3 C 0 km/h
474 04-06-2009 22:18:22 13.2 C 4.94 g/m*3 13.2 C 0 km/h
475 04-06-2009 22:30:22 13 C 4.99 g/m*3 13 C 0 km/h
Sensor: Nr:Datum:Temp:Abs-Feuchte:Windchill:Wind:
Aussen-T/F 476 04-06-2009 22:42:22 13 C 4.88 g/m*3 13 C 0 km/h
477 04-06-2009 22:54:22 12.9 C 4.96 g/m*3 12.9 C 0 km/h
478 04-06-2009 23:06:22 12.7 C 5.01 g/m*3 12.7 C 0 km/h
479 04-06-2009 23:18:22 12.4 C 4.92 g/m*3 12.4 C 0 km/h
480 04-06-2009 23:30:22 12.2 C 4.86 g/m*3 12.2 C 0 km/h
481 04-06-2009 23:42:22 12.1 C 4.93 g/m*3 12.1 C 0 km/h
482 04-06-2009 23:54:22 12 C 5.01 g/m*3 12 C 0 km/h
483 05-06-2009 00:06:22 11.7 C 5.12 g/m*3 11.7 C 0 km/h
484 05-06-2009 00:18:22 11.7 C 5.12 g/m*3 11.7 C 0 km/h
485 05-06-2009 00:30:22 11.6 C 5.09 g/m*3 11.6 C 0 km/h
486 05-06-2009 00:42:22 11.4 C 4.82 g/m*3 11.4 C 0 km/h
487 05-06-2009 00:54:22 11.2 C 4.76 g/m*3 11.2 C 0 km/h
488 05-06-2009 01:06:22 11.2 C 4.66 g/m*3 11.2 C 0 km/h
489 05-06-2009 01:18:22 11.1 C 4.63 g/m*3 11.1 C 0 km/h
490 05-06-2009 01:30:22 11 C 4.6 g/m*3 11 C 0 km/h
491 05-06-2009 01:42:22 10.9 C 4.67 g/m*3 10.9 C 0 km/h
492 05-06-2009 01:54:23 10.8 C 4.65 g/m*3 10.8 C 0 km/h
493 05-06-2009 02:06:23 10.7 C 4.71 g/m*3 10.7 C 0 km/h
494 05-06-2009 02:18:23 10.4 C 4.72 g/m*3 10.4 C 0 km/h
495 05-06-2009 02:30:23 10 C 4.7 g/m*3 10 C 0 km/h
496 05-06-2009 02:42:23 9.6 C 4.76 g/m*3 9.6 C 0 km/h
497 05-06-2009 02:54:23 9.2 C 4.91 g/m*3 9.2 C 0 km/h
498 05-06-2009 03:06:23 9.2 C 5 g/m*3 9.2 C 0 km/h
499 05-06-2009 03:18:23 9.3 C 5.03 g/m*3 9.3 C 0 km/h
500 05-06-2009 03:30:23 9.2 C 5 g/m*3 9.2 C 0 km/h
Sensor: Nr:Datum:Temp:Abs-Feuchte:Windchill:Wind:
Aussen-T/F 501 05-06-2009 03:42:23 9 C 5.11 g/m*3 9 C 0 km/h
502 05-06-2009 03:54:23 8.6 C 5.16 g/m*3 8.6 C 0 km/h
503 05-06-2009 04:06:23 8.6 C 5.16 g/m*3 8.6 C 0 km/h
504 05-06-2009 04:18:23 8.6 C 5.24 g/m*3 8.6 C 0 km/h
505 05-06-2009 04:30:23 8.5 C 5.21 g/m*3 8.5 C 0 km/h
506 05-06-2009 04:42:23 8.5 C 5.29 g/m*3 8.5 C 0 km/h
507 05-06-2009 04:54:23 8.5 C 5.38 g/m*3 8.5 C 0 km/h
508 05-06-2009 05:06:23 8.4 C 5.34 g/m*3 8.4 C 0 km/h
509 05-06-2009 05:18:23 8.1 C 5.33 g/m*3 8.1 C 0 km/h
510 05-06-2009 05:30:23 8.2 C 5.44 g/m*3 8.2 C 0 km/h
511 05-06-2009 05:42:23 8.4 C 5.6 g/m*3 8.4 C 0 km/h
512 05-06-2009 05:54:24 8.5 C 5.64 g/m*3 8.5 C 0 km/h
513 05-06-2009 06:06:24 8.5 C 5.72 g/m*3 8.5 C 0 km/h
514 05-06-2009 06:18:24 8.5 C 5.64 g/m*3 8.5 C 0 km/h
515 05-06-2009 06:30:24 8.5 C 5.72 g/m*3 8.5 C 0 km/h
516 05-06-2009 06:42:24 8.5 C 5.72 g/m*3 8.5 C 0 km/h
517 05-06-2009 06:54:24 8.7 C 5.79 g/m*3 8.7 C 0 km/h
518 05-06-2009 07:06:28 8.8 C 5.83 g/m*3 8.8 C 0 km/h
519 05-06-2009 07:18:27 8.9 C 5.78 g/m*3 8.9 C 0 km/h
520 05-06-2009 07:30:28 9.2 C 5.63 g/m*3 9.2 C 0 km/h
521 05-06-2009 07:42:28 10 C 5.64 g/m*3 10 C 0 km/h
522 05-06-2009 07:54:27 10.2 C 5.52 g/m*3 10.2 C 0 km/h
523 05-06-2009 08:06:27 10.5 C 5.63 g/m*3 10.5 C 0 km/h
524 05-06-2009 08:18:27 10.8 C 5.63 g/m*3 10.8 C 0 km/h
525 05-06-2009 08:30:27 10.6 C 5.56 g/m*3 10.6 C 0 km/h
Sensor: Nr:Datum:Temp:Abs-Feuchte:Windchill:Wind:
Aussen-T/F 526 05-06-2009 08:42:27 10.2 C 5.61 g/m*3 10.2 C 0 km/h
527 05-06-2009 08:54:26 10.4 C 5.78 g/m*3 10.4 C 0 km/h
528 05-06-2009 09:06:27 11.5 C 5.78 g/m*3 11.5 C 0 km/h
529 05-06-2009 09:18:26 12.3 C 5.43 g/m*3 12.3 C 0 km/h
530 05-06-2009 09:30:26 12.7 C 5.12 g/m*3 12.7 C 0 km/h
531 05-06-2009 09:42:26 11.8 C 4.95 g/m*3 11.8 C 0 km/h
532 05-06-2009 09:54:26 12.1 C 5.25 g/m*3 12.1 C 0 km/h
533 05-06-2009 10:06:26 12.7 C 5.12 g/m*3 12.7 C 0 km/h
534 05-06-2009 10:18:25 13.1 C 5.02 g/m*3 13.1 C 0 km/h
535 05-06-2009 10:30:26 12.3 C 4.67 g/m*3 12.3 C 0 km/h
536 05-06-2009 10:42:26 13.3 C 4.97 g/m*3 13.3 C 0 km/h
537 05-06-2009 10:54:26 12.6 C 4.54 g/m*3 12.6 C 0 km/h
538 05-06-2009 11:06:25 12.3 C 4.56 g/m*3 12.3 C 0 km/h
539 05-06-2009 11:18:26 13 C 4.76 g/m*3 13 C 0 km/h
540 05-06-2009 11:30:25 13.4 C 4.65 g/m*3 13.4 C 0 km/h
541 05-06-2009 11:42:25 14 C 4.34 g/m*3 14 C 0 km/h
542 05-06-2009 11:54:25 14.3 C 4.18 g/m*3 14.3 C 0 km/h
543 05-06-2009 12:06:24 14.6 C 4.38 g/m*3 14.6 C 0 km/h
544 05-06-2009 12:18:25 15.3 C 4.44 g/m*3 15.3 C 0 km/h
545 05-06-2009 12:30:25 15.6 C 4.26 g/m*3 15.6 C 0 km/h
546 05-06-2009 12:42:25 16.1 C 4.25 g/m*3 16.1 C 0 km/h
547 05-06-2009 12:54:24 16.6 C 4.38 g/m*3 16.6 C 0 km/h
548 05-06-2009 13:06:25 18.5 C 4.43 g/m*3 18.5 C 0 km/h
549 05-06-2009 13:18:24 17.7 C 4.22 g/m*3 17.7 C 0 km/h
550 05-06-2009 13:30:24 17.2 C 4.25 g/m*3 17.2 C 0 km/h
Sensor: Nr:Datum:Temp:Abs-Feuchte:Windchill:Wind:
Aussen-T/F 551 05-06-2009 13:42:25 16.6 C 4.1 g/m*3 16.6 C 0 km/h
552 05-06-2009 13:54:24 16.2 C 4 g/m*3 16.2 C 0 km/h
553 05-06-2009 14:06:24 16.5 C 4.07 g/m*3 16.5 C 0 km/h
554 05-06-2009 14:18:23 16.8 C 4.15 g/m*3 16.8 C 0 km/h
555 05-06-2009 14:30:23 16.6 C 3.96 g/m*3 16.6 C 0 km/h
556 05-06-2009 14:42:23 16.2 C 3.86 g/m*3 16.2 C 0 km/h
557 05-06-2009 14:54:23 16.4 C 4.19 g/m*3 16.4 C 0 km/h
558 05-06-2009 15:06:23 16.8 C 4.15 g/m*3 16.8 C 0 km/h
559 05-06-2009 15:18:23 16.4 C 3.77 g/m*3 16.4 C 0 km/h
560 05-06-2009 15:30:23 16 C 3.95 g/m*3 16 C 0 km/h
561 05-06-2009 15:42:23 15.9 C 3.93 g/m*3 15.9 C 0 km/h
562 05-06-2009 15:54:23 15.6 C 3.72 g/m*3 15.6 C 0 km/h
563 05-06-2009 16:06:22 16.8 C 3.86 g/m*3 16.8 C 0 km/h
564 05-06-2009 16:18:22 17.6 C 4.05 g/m*3 17.6 C 0 km/h
565 05-06-2009 16:30:23 18.4 C 4.09 g/m*3 18.4 C 0 km/h
566 05-06-2009 16:42:23 18.9 C 4.05 g/m*3 18.9 C 0 km/h
567 05-06-2009 16:54:22 20.1 C 4 g/m*3 20.1 C 0 km/h
568 05-06-2009 17:06:21 20 C 3.46 g/m*3 20 C 0 km/h
569 05-06-2009 17:18:22 18.4 C 3.3 g/m*3 18.4 C 0 km/h
570 05-06-2009 17:30:22 20.4 C 3.71 g/m*3 20.4 C 0 km/h
571 05-06-2009 17:42:22 20.7 C 3.6 g/m*3 20.7 C 0 km/h
572 05-06-2009 17:54:21 22 C 3.88 g/m*3 22 C 0 km/h
573 05-06-2009 18:06:22 22.9 C 4.09 g/m*3 22.9 C 0 km/h
574 05-06-2009 18:18:21 22.9 C 4.09 g/m*3 22.9 C 0 km/h
575 05-06-2009 18:30:21 22.1 C 3.9 g/m*3 22.1 C 0 km/h
Sensor: Nr:Datum:Temp:Abs-Feuchte:Windchill:Wind:
Aussen-T/F 576 05-06-2009 18:42:21 21 C 3.66 g/m*3 21 C 0 km/h
577 05-06-2009 18:54:21 20.7 C 3.6 g/m*3 20.7 C 0 km/h
578 05-06-2009 19:06:21 21 C 3.66 g/m*3 21 C 0 km/h
579 05-06-2009 19:18:20 20.2 C 3.5 g/m*3 20.2 C 0 km/h
580 05-06-2009 19:30:20 18.5 C 3.48 g/m*3 18.5 C 0 km/h
581 05-06-2009 19:42:20 17.7 C 3.92 g/m*3 17.7 C 0 km/h
582 05-06-2009 19:54:20 17.9 C 3.97 g/m*3 17.9 C 0 km/h
583 05-06-2009 20:06:20 17.7 C 4.07 g/m*3 17.7 C 0 km/h
584 05-06-2009 20:18:20 17.2 C 4.25 g/m*3 17.2 C 0 km/h
585 05-06-2009 20:30:20 16.9 C 4.6 g/m*3 16.9 C 0 km/h
586 05-06-2009 20:42:20 16 C 4.63 g/m*3 16 C 0 km/h
587 05-06-2009 20:54:20 15 C 4.62 g/m*3 15 C 0 km/h
588 05-06-2009 21:06:20 14.2 C 4.76 g/m*3 14.2 C 0 km/h
589 05-06-2009 21:18:20 13.4 C 4.77 g/m*3 13.4 C 0 km/h
590 05-06-2009 21:30:19 13 C 4.65 g/m*3 13 C 0 km/h
591 05-06-2009 21:42:19 12.7 C 4.9 g/m*3 12.7 C 0 km/h
592 05-06-2009 21:54:20 12.2 C 4.86 g/m*3 12.2 C 0 km/h
593 05-06-2009 22:06:19 11.9 C 4.87 g/m*3 11.9 C 0 km/h
594 05-06-2009 22:18:19 11.8 C 5.05 g/m*3 11.8 C 0 km/h
595 05-06-2009 22:31:19 11.4 C 5.03 g/m*3 11.4 C 0 km/h
596 05-06-2009 22:43:19 11.1 C 5.04 g/m*3 11.1 C 0 km/h
597 05-06-2009 22:55:19 11 C 5.1 g/m*3 11 C 0 km/h
598 05-06-2009 23:07:19 10.8 C 5.14 g/m*3 10.8 C 0 km/h
599 05-06-2009 23:19:19 10.5 C 5.14 g/m*3 10.5 C 0 km/h
600 05-06-2009 23:31:19 10.4 C 5.2 g/m*3 10.4 C 0 km/h
Sensor: Nr:Datum:Temp:Abs-Feuchte:Windchill:Wind:
Aussen-T/F 601 05-06-2009 23:43:19 10.1 C 5.2 g/m*3 10.1 C 0 km/h
602 05-06-2009 23:55:20 10 C 5.17 g/m*3 10 C 0 km/h
603 06-06-2009 00:07:20 9.8 C 5.29 g/m*3 9.8 C 0 km/h
604 06-06-2009 00:19:20 9.7 C 5.35 g/m*3 9.7 C 0 km/h
605 06-06-2009 00:31:20 9.5 C 5.37 g/m*3 9.5 C 0 km/h
606 06-06-2009 00:43:20 9.1 C 5.32 g/m*3 9.1 C 0 km/h
607 06-06-2009 00:55:20 8.9 C 5.43 g/m*3 8.9 C 0 km/h
608 06-06-2009 01:07:20 8.8 C 5.4 g/m*3 8.8 C 0 km/h
609 06-06-2009 01:19:20 8.6 C 5.33 g/m*3 8.6 C 0 km/h
610 06-06-2009 01:31:20 8.6 C 5.41 g/m*3 8.6 C 0 km/h
611 06-06-2009 01:43:20 8.5 C 5.55 g/m*3 8.5 C 0 km/h
612 06-06-2009 01:55:20 8.3 C 5.48 g/m*3 8.3 C 0 km/h
613 06-06-2009 02:07:20 8.2 C 5.53 g/m*3 8.2 C 0 km/h
614 06-06-2009 02:19:20 8.1 C 5.49 g/m*3 8.1 C 0 km/h
615 06-06-2009 02:31:20 8.1 C 5.57 g/m*3 8.1 C 0 km/h
616 06-06-2009 02:43:20 8.1 C 5.66 g/m*3 8.1 C 0 km/h
617 06-06-2009 02:55:20 8.1 C 5.66 g/m*3 8.1 C 0 km/h
618 06-06-2009 03:07:20 8 C 5.79 g/m*3 8 C 0 km/h
619 06-06-2009 03:19:20 7.8 C 5.79 g/m*3 7.8 C 0 km/h
620 06-06-2009 03:31:20 7.6 C 5.8 g/m*3 7.6 C 0 km/h
621 06-06-2009 03:43:20 7.5 C 5.84 g/m*3 7.5 C 0 km/h
622 06-06-2009 03:55:20 7.4 C 5.81 g/m*3 7.4 C 0 km/h
623 06-06-2009 04:07:21 7.4 C 5.81 g/m*3 7.4 C 0 km/h
624 06-06-2009 04:19:21 7.4 C 5.81 g/m*3 7.4 C 0 km/h
625 06-06-2009 04:31:21 7.3 C 5.85 g/m*3 7.3 C 0 km/h
Sensor: Nr:Datum:Temp:Abs-Feuchte:Windchill:Wind:
Aussen-T/F 626 06-06-2009 04:43:21 7.1 C 5.77 g/m*3 7.1 C 0 km/h
627 06-06-2009 04:55:21 7.2 C 5.89 g/m*3 7.2 C 0 km/h
628 06-06-2009 05:07:21 7.4 C 5.96 g/m*3 7.4 C 0 km/h
629 06-06-2009 05:19:21 7.6 C 6.04 g/m*3 7.6 C 0 km/h
630 06-06-2009 05:31:21 7.8 C 6.04 g/m*3 7.8 C 0 km/h
631 06-06-2009 05:43:21 8 C 6.04 g/m*3 8 C 0 km/h
632 06-06-2009 05:55:21 8.1 C 6.07 g/m*3 8.1 C 0 km/h
633 06-06-2009 06:07:21 8.2 C 6.11 g/m*3 8.2 C 0 km/h
634 06-06-2009 06:19:21 8.4 C 6.19 g/m*3 8.4 C 0 km/h
635 06-06-2009 06:31:21 8.7 C 6.23 g/m*3 8.7 C 0 km/h
636 06-06-2009 06:43:21 8.7 C 6.05 g/m*3 8.7 C 0 km/h
637 06-06-2009 06:55:21 8.9 C 6.13 g/m*3 8.9 C 0 km/h
638 06-06-2009 07:07:21 8.9 C 6.13 g/m*3 8.9 C 0 km/h
639 06-06-2009 07:19:21 8.9 C 6.13 g/m*3 8.9 C 0 km/h
640 06-06-2009 07:31:21 8.6 C 6.27 g/m*3 8.6 C 0 km/h
641 06-06-2009 07:43:21 8.6 C 6.44 g/m*3 8.6 C 0 km/h
642 06-06-2009 07:55:21 8.6 C 6.62 g/m*3 8.6 C 0 km/h
643 06-06-2009 08:07:22 8.6 C 6.79 g/m*3 8.6 C 0 km/h
644 06-06-2009 08:19:22 8.6 C 6.96 g/m*3 8.6 C 0 km/h
645 06-06-2009 08:31:22 8.3 C 7.08 g/m*3 8.3 C 0 km/h
646 06-06-2009 08:43:22 8.3 C 7.33 g/m*3 8.3 C 0 km/h
647 06-06-2009 08:55:22 8.2 C 7.37 g/m*3 8.2 C 0 km/h
648 06-06-2009 09:07:19 8.5 C 7.6 g/m*3 8.5 C 0 km/h
649 06-06-2009 09:19:19 8.4 C 7.63 g/m*3 8.4 C 0 km/h
650 06-06-2009 09:31:20 8.7 C 7.78 g/m*3 8.7 C 0 km/h
Sensor: Nr:Datum:Temp:Abs-Feuchte:Windchill:Wind:
Aussen-T/F 651 06-06-2009 09:43:20 8.7 C 7.87 g/m*3 8.7 C 0 km/h
652 06-06-2009 09:55:19 8.9 C 7.97 g/m*3 8.9 C 0 km/h
653 06-06-2009 10:07:19 9.1 C 7.99 g/m*3 9.1 C 0 km/h
654 06-06-2009 10:19:19 9.1 C 7.99 g/m*3 9.1 C 0 km/h
655 06-06-2009 10:31:19 8.9 C 7.97 g/m*3 8.9 C 0 km/h
656 06-06-2009 10:43:19 9 C 7.93 g/m*3 9 C 0 km/h
657 06-06-2009 10:55:18 9 C 7.93 g/m*3 9 C 0 km/h
658 06-06-2009 11:07:19 9 C 7.93 g/m*3 9 C 0 km/h
659 06-06-2009 11:19:18 9 C 7.93 g/m*3 9 C 0 km/h
660 06-06-2009 11:31:18 9.2 C 8.13 g/m*3 9.2 C 0 km/h
661 06-06-2009 11:43:18 9.2 C 8.13 g/m*3 9.2 C 0 km/h
662 06-06-2009 11:55:18 9 C 8.02 g/m*3 9 C 0 km/h
663 06-06-2009 12:07:17 9.2 C 8.13 g/m*3 9.2 C 0 km/h
664 06-06-2009 12:19:18 9.4 C 8.32 g/m*3 9.4 C 0 km/h
665 06-06-2009 12:31:18 9.3 C 8.27 g/m*3 9.3 C 0 km/h
666 06-06-2009 12:43:18 9.3 C 8.27 g/m*3 9.3 C 0 km/h
667 06-06-2009 12:55:17 9.5 C 8.37 g/m*3 9.5 C 0 km/h
668 06-06-2009 13:07:18 9.6 C 8.43 g/m*3 9.6 C 0 km/h
669 06-06-2009 13:19:17 9.7 C 8.48 g/m*3 9.7 C 0 km/h
670 06-06-2009 13:31:17 9.7 C 8.57 g/m*3 9.7 C 0 km/h
671 06-06-2009 13:43:17 9.7 C 8.57 g/m*3 9.7 C 0 km/h
672 06-06-2009 13:55:17 9.6 C 8.52 g/m*3 9.6 C 0 km/h
673 06-06-2009 14:07:17 9.8 C 8.63 g/m*3 9.8 C 0 km/h
674 06-06-2009 14:19:16 9.8 C 8.63 g/m*3 9.8 C 0 km/h
675 06-06-2009 14:31:16 9.8 C 8.63 g/m*3 9.8 C 0 km/h
Sensor: Nr:Datum:Temp:Abs-Feuchte:Windchill:Wind:
Aussen-T/F 676 06-06-2009 14:43:16 9.6 C 8.43 g/m*3 9.6 C 0 km/h
677 06-06-2009 14:55:16 9.5 C 8.37 g/m*3 9.5 C 0 km/h
678 06-06-2009 15:07:16 9.5 C 8.37 g/m*3 9.5 C 0 km/h
679 06-06-2009 15:19:15 9.4 C 8.32 g/m*3 9.4 C 0 km/h
680 06-06-2009 15:31:16 9.5 C 8.37 g/m*3 9.5 C 0 km/h
681 06-06-2009 15:43:16 9.7 C 8.57 g/m*3 9.7 C 0 km/h
682 06-06-2009 15:55:15 9.8 C 8.63 g/m*3 9.8 C 0 km/h
683 06-06-2009 16:07:15 10.1 C 8.7 g/m*3 10.1 C 0 km/h
684 06-06-2009 16:19:16 10.1 C 8.7 g/m*3 10.1 C 0 km/h
685 06-06-2009 16:31:15 9.9 C 8.68 g/m*3 9.9 C 0 km/h
686 06-06-2009 16:43:15 10 C 8.64 g/m*3 10 C 0 km/h
687 06-06-2009 16:55:15 9.9 C 8.68 g/m*3 9.9 C 0 km/h
688 06-06-2009 17:07:15 9.9 C 8.59 g/m*3 9.9 C 0 km/h
689 06-06-2009 17:19:15 9.9 C 8.59 g/m*3 9.9 C 0 km/h
690 06-06-2009 17:31:14 10.1 C 8.61 g/m*3 10.1 C 0 km/h
691 06-06-2009 17:43:14 10.3 C 8.71 g/m*3 10.3 C 0 km/h
692 06-06-2009 17:55:15 10.4 C 8.67 g/m*3 10.4 C 0 km/h
693 06-06-2009 18:07:14 10.5 C 8.73 g/m*3 10.5 C 0 km/h
694 06-06-2009 18:19:14 10.9 C 8.95 g/m*3 10.9 C 0 km/h
695 06-06-2009 18:31:02 10.7 C 8.64 g/m*3 10.7 C 0 km/h
696 06-06-2009 18:43:02 10.8 C 8.7 g/m*3 10.8 C 0 km/h
697 06-06-2009 18:55:01 10.7 C 8.45 g/m*3 10.7 C 0 km/h
698 06-06-2009 19:07:02 10.8 C 8.5 g/m*3 10.8 C 0 km/h
699 06-06-2009 19:19:01 10.9 C 8.45 g/m*3 10.9 C 0 km/h
700 06-06-2009 19:31:01 11.1 C 8.56 g/m*3 11.1 C 0 km/h
Sensor: Nr:Datum:Temp:Abs-Feuchte:Windchill:Wind:
Aussen-T/F 701 06-06-2009 19:43:01 11 C 8.51 g/m*3 11 C 0 km/h
702 06-06-2009 19:55:01 10.9 C 8.65 g/m*3 10.9 C 0 km/h
703 06-06-2009 20:07:01 10.5 C 8.34 g/m*3 10.5 C 0 km/h
704 06-06-2009 20:19:00 10.4 C 8.29 g/m*3 10.4 C 0 km/h
705 06-06-2009 20:31:00 10.4 C 8.38 g/m*3 10.4 C 0 km/h
706 06-06-2009 20:43:00 10.4 C 8.38 g/m*3 10.4 C 0 km/h
707 06-06-2009 20:55:00 10.3 C 8.33 g/m*3 10.3 C 0 km/h
708 06-06-2009 21:07:00 10.3 C 8.43 g/m*3 10.3 C 0 km/h
709 06-06-2009 21:18:59 10.2 C 8.37 g/m*3 10.2 C 0 km/h
710 06-06-2009 21:31:00 10.2 C 8.37 g/m*3 10.2 C 0 km/h
711 06-06-2009 21:43:00 10.1 C 8.32 g/m*3 10.1 C 0 km/h
712 06-06-2009 21:55:59 9.8 C 8.26 g/m*3 9.8 C 0 km/h
713 06-06-2009 22:07:59 9.5 C 8.1 g/m*3 9.5 C 0 km/h
714 06-06-2009 22:19:00 9.4 C 8.14 g/m*3 9.4 C 0 km/h
715 06-06-2009 22:31:59 9.4 C 8.23 g/m*3 9.4 C 0 km/h
716 06-06-2009 22:43:59 9.5 C 8.28 g/m*3 9.5 C 0 km/h
717 06-06-2009 22:55:59 9.6 C 8.43 g/m*3 9.6 C 0 km/h
718 06-06-2009 23:07:59 9.5 C 8.37 g/m*3 9.5 C 0 km/h
719 06-06-2009 23:19:59 9.5 C 8.37 g/m*3 9.5 C 0 km/h
720 06-06-2009 23:31:58 9.2 C 8.13 g/m*3 9.2 C 0 km/h
721 06-06-2009 23:43:58 8.8 C 8.01 g/m*3 8.8 C 0 km/h
722 06-06-2009 23:55:59 8.5 C 7.85 g/m*3 8.5 C 0 km/h
723 07-06-2009 00:07:59 8.5 C 7.85 g/m*3 8.5 C 0 km/h
724 07-06-2009 00:19:59 8.3 C 7.75 g/m*3 8.3 C 0 km/h
725 07-06-2009 00:31:58 8.1 C 7.66 g/m*3 8.1 C 0 km/h
Sensor: Nr:Datum:Temp:Abs-Feuchte:Windchill:Wind:
Aussen-T/F 726 07-06-2009 00:43:58 7.9 C 7.64 g/m*3 7.9 C 0 km/h
727 07-06-2009 00:55:58 8 C 7.61 g/m*3 8 C 0 km/h
728 07-06-2009 01:07:57 8 C 7.69 g/m*3 8 C 0 km/h
729 07-06-2009 01:19:58 8 C 7.69 g/m*3 8 C 0 km/h
730 07-06-2009 01:31:58 7.9 C 7.72 g/m*3 7.9 C 0 km/h
731 07-06-2009 01:43:58 7.9 C 7.72 g/m*3 7.9 C 0 km/h
732 07-06-2009 01:55:57 8.1 C 7.74 g/m*3 8.1 C 0 km/h
733 07-06-2009 02:07:58 8.2 C 7.87 g/m*3 8.2 C 0 km/h
734 07-06-2009 02:19:57 8.4 C 7.97 g/m*3 8.4 C 0 km/h
735 07-06-2009 02:31:57 8.4 C 7.97 g/m*3 8.4 C 0 km/h
736 07-06-2009 02:43:57 8.4 C 7.97 g/m*3 8.4 C 0 km/h
737 07-06-2009 02:56:59 8.4 C 7.97 g/m*3 8.4 C 0 km/h
738 07-06-2009 03:08:59 8.5 C 8.11 g/m*3 8.5 C 0 km/h
739 07-06-2009 03:20:59 8.5 C 8.11 g/m*3 8.5 C 0 km/h
740 07-06-2009 03:32:58 8.5 C 8.11 g/m*3 8.5 C 0 km/h
741 07-06-2009 03:44:58 8.4 C 8.06 g/m*3 8.4 C 0 km/h
742 07-06-2009 03:56:58 8.4 C 8.06 g/m*3 8.4 C 0 km/h
743 07-06-2009 04:08:58 8.5 C 8.11 g/m*3 8.5 C 0 km/h
744 07-06-2009 04:20:58 8.5 C 8.11 g/m*3 8.5 C 0 km/h
745 07-06-2009 04:32:58 8.5 C 8.11 g/m*3 8.5 C 0 km/h
746 07-06-2009 04:44:57 8.5 C 8.11 g/m*3 8.5 C 0 km/h
747 07-06-2009 04:56:57 8.5 C 8.11 g/m*3 8.5 C 0 km/h
748 07-06-2009 05:08:58 8.6 C 8.16 g/m*3 8.6 C 0 km/h
749 07-06-2009 05:20:58 8.6 C 8.16 g/m*3 8.6 C 0 km/h
750 07-06-2009 05:32:57 8.6 C 8.16 g/m*3 8.6 C 0 km/h
Sensor: Nr:Datum:Temp:Abs-Feuchte:Windchill:Wind:
Aussen-T/F 751 07-06-2009 05:44:57 8.7 C 8.22 g/m*3 8.7 C 0 km/h
752 07-06-2009 05:56:57 8.8 C 8.27 g/m*3 8.8 C 0 km/h
753 07-06-2009 06:08:57 8.9 C 8.32 g/m*3 8.9 C 0 km/h
754 07-06-2009 06:20:57 9.1 C 8.34 g/m*3 9.1 C 0 km/h
755 07-06-2009 06:32:57 9.3 C 8.45 g/m*3 9.3 C 0 km/h
756 07-06-2009 06:44:57 9.5 C 8.56 g/m*3 9.5 C 0 km/h
757 07-06-2009 06:56:57 9.5 C 8.56 g/m*3 9.5 C 0 km/h
758 07-06-2009 07:08:57 9.6 C 8.61 g/m*3 9.6 C 0 km/h
759 07-06-2009 07:20:56 10 C 8.74 g/m*3 10 C 0 km/h
760 07-06-2009 07:32:57 10.2 C 8.76 g/m*3 10.2 C 0 km/h
761 07-06-2009 07:44:01 10.3 C 8.43 g/m*3 10.3 C 0 km/h
762 07-06-2009 07:56:01 10.7 C 8.45 g/m*3 10.7 C 0 km/h
763 07-06-2009 08:08:01 11 C 8.01 g/m*3 11 C 0 km/h
764 07-06-2009 08:20:01 11.4 C 8.01 g/m*3 11.4 C 0 km/h
765 07-06-2009 08:32:01 11.7 C 7.84 g/m*3 11.7 C 0 km/h
766 07-06-2009 08:44:01 11.9 C 7.52 g/m*3 11.9 C 0 km/h
767 07-06-2009 08:56:01 12.4 C 7.32 g/m*3 12.4 C 0 km/h
768 07-06-2009 09:08:01 13.1 C 7.42 g/m*3 13.1 C 0 km/h
769 07-06-2009 09:20:01 13.6 C 7.3 g/m*3 13.6 C 0 km/h
770 07-06-2009 09:32:00 14 C 7.48 g/m*3 14 C 0 km/h
771 07-06-2009 09:44:00 14.1 C 7.52 g/m*3 14.1 C 0 km/h
772 07-06-2009 09:56:00 14.3 C 7.62 g/m*3 14.3 C 0 km/h
773 07-06-2009 10:08:00 14.4 C 7.42 g/m*3 14.4 C 0 km/h
774 07-06-2009 10:20:59 14.9 C 7.77 g/m*3 14.9 C 0 km/h
775 07-06-2009 10:32:00 15.5 C 7.93 g/m*3 15.5 C 0 km/h
Sensor: Nr:Datum:Temp:Abs-Feuchte:Windchill:Wind:
Aussen-T/F 776 07-06-2009 10:44:00 15.9 C 7.72 g/m*3 15.9 C 0 km/h
777 07-06-2009 10:56:59 16.4 C 7.54 g/m*3 16.4 C 0 km/h
778 07-06-2009 11:08:59 16.9 C 7.91 g/m*3 16.9 C 0 km/h
779 07-06-2009 11:20:00 17.2 C 7.91 g/m*3 17.2 C 0 km/h
780 07-06-2009 11:32:59 17 C 7.81 g/m*3 17 C 0 km/h
781 07-06-2009 11:44:59 16.1 C 7.81 g/m*3 16.1 C 0 km/h
782 07-06-2009 11:56:59 17.5 C 7.9 g/m*3 17.5 C 0 km/h
783 07-06-2009 12:08:59 17.1 C 7.42 g/m*3 17.1 C 0 km/h
784 07-06-2009 12:20:59 17.7 C 7.69 g/m*3 17.7 C 0 km/h
785 07-06-2009 12:32:59 17.3 C 7.81 g/m*3 17.3 C 0 km/h
786 07-06-2009 12:44:58 17.1 C 8.3 g/m*3 17.1 C 0 km/h
787 07-06-2009 12:56:58 16.8 C 8.86 g/m*3 16.8 C 0 km/h
788 07-06-2009 13:08:59 16.6 C 8.48 g/m*3 16.6 C 0 km/h
789 07-06-2009 13:20:59 16.4 C 8.79 g/m*3 16.4 C 0 km/h
790 07-06-2009 13:32:59 17.4 C 8.89 g/m*3 17.4 C 0 km/h
791 07-06-2009 13:44:58 19.3 C 8.13 g/m*3 19.3 C 0 km/h
792 07-06-2009 13:56:58 19.2 C 7.91 g/m*3 19.2 C 0 km/h
793 07-06-2009 14:08:57 19.4 C 8.34 g/m*3 19.4 C 0 km/h
794 07-06-2009 14:20:58 18.9 C 8.26 g/m*3 18.9 C 0 km/h
795 07-06-2009 14:32:58 18.9 C 8.42 g/m*3 18.9 C 0 km/h
796 07-06-2009 14:44:57 18.7 C 8.65 g/m*3 18.7 C 0 km/h
797 07-06-2009 14:56:57 19.1 C 8.69 g/m*3 19.1 C 0 km/h
798 07-06-2009 15:08:58 19.1 C 8.36 g/m*3 19.1 C 0 km/h
799 07-06-2009 15:20:57 17.3 C 8.99 g/m*3 17.3 C 0 km/h
800 07-06-2009 15:32:58 16 C 10.22 g/m*3 16 C 0 km/h
Sensor: Nr:Datum:Temp:Abs-Feuchte:Windchill:Wind:
Aussen-T/F 801 07-06-2009 15:44:57 15.5 C 10.31 g/m*3 15.5 C 0 km/h
802 07-06-2009 15:56:57 15.1 C 10.45 g/m*3 15.1 C 0 km/h
803 07-06-2009 16:08:57 14.8 C 10.64 g/m*3 14.8 C 0 km/h
804 07-06-2009 16:20:56 15.6 C 11.57 g/m*3 15.6 C 0 km/h
805 07-06-2009 16:32:57 16 C 11.72 g/m*3 16 C 0 km/h
806 07-06-2009 16:44:56 16.3 C 11.52 g/m*3 16.3 C 0 km/h
807 07-06-2009 16:56:56 17.2 C 11.57 g/m*3 17.2 C 0 km/h
808 07-06-2009 17:08:56 17.6 C 10.8 g/m*3 17.6 C 0 km/h
809 07-06-2009 17:20:56 18.9 C 10.85 g/m*3 18.9 C 0 km/h
810 07-06-2009 17:32:56 19.5 C 10.07 g/m*3 19.5 C 0 km/h
811 07-06-2009 17:44:56 18.4 C 9.75 g/m*3 18.4 C 0 km/h
812 07-06-2009 17:56:56 18.3 C 9.85 g/m*3 18.3 C 0 km/h
813 07-06-2009 18:08:55 18.8 C 9.34 g/m*3 18.8 C 0 km/h
814 07-06-2009 18:20:56 17.3 C 7.51 g/m*3 17.3 C 0 km/h
815 07-06-2009 18:32:55 17 C 8.54 g/m*3 17 C 0 km/h
816 07-06-2009 18:44:55 18 C 8.29 g/m*3 18 C 0 km/h
817 07-06-2009 18:56:55 19.2 C 7.75 g/m*3 19.2 C 0 km/h
818 07-06-2009 19:08:55 20.4 C 7.61 g/m*3 20.4 C 0 km/h
819 07-06-2009 19:20:55 20.4 C 7.25 g/m*3 20.4 C 0 km/h
820 07-06-2009 19:32:55 20.3 C 7.03 g/m*3 20.3 C 0 km/h
821 07-06-2009 19:44:55 19.8 C 7.34 g/m*3 19.8 C 0 km/h
822 07-06-2009 19:56:55 20.3 C 7.39 g/m*3 20.3 C 0 km/h
823 07-06-2009 20:08:54 20.3 C 7.39 g/m*3 20.3 C 0 km/h
824 07-06-2009 20:20:55 20 C 7.09 g/m*3 20 C 0 km/h
825 07-06-2009 20:32:54 18.7 C 6.88 g/m*3 18.7 C 0 km/h
Sensor: Nr:Datum:Temp:Abs-Feuchte:Windchill:Wind:
Aussen-T/F 826 07-06-2009 20:44:54 17.6 C 7.05 g/m*3 17.6 C 0 km/h
827 07-06-2009 20:56:55 16.6 C 7.06 g/m*3 16.6 C 0 km/h
828 07-06-2009 21:08:53 16.1 C 6.99 g/m*3 16.1 C 0 km/h
829 07-06-2009 21:20:54 15.8 C 7.54 g/m*3 15.8 C 0 km/h
830 07-06-2009 21:32:54 15.2 C 7.79 g/m*3 15.2 C 0 km/h
831 07-06-2009 21:44:53 14.7 C 7.93 g/m*3 14.7 C 0 km/h
832 07-06-2009 21:56:53 14.1 C 7.77 g/m*3 14.1 C 0 km/h
833 07-06-2009 22:09:55 13.5 C 7.37 g/m*3 13.5 C 0 km/h
834 07-06-2009 22:21:55 13 C 7.03 g/m*3 13 C 0 km/h
835 07-06-2009 22:33:55 12.7 C 7.01 g/m*3 12.7 C 0 km/h
836 07-06-2009 22:45:55 12.5 C 6.93 g/m*3 12.5 C 0 km/h
837 07-06-2009 22:57:55 12.3 C 6.84 g/m*3 12.3 C 0 km/h
838 07-06-2009 23:09:55 12 C 6.71 g/m*3 12 C 0 km/h
839 07-06-2009 23:21:55 11.8 C 6.84 g/m*3 11.8 C 0 km/h
840 07-06-2009 23:33:55 11.6 C 6.96 g/m*3 11.6 C 0 km/h
841 07-06-2009 23:45:55 11.5 C 7.02 g/m*3 11.5 C 0 km/h
842 07-06-2009 23:57:55 11.3 C 7.04 g/m*3 11.3 C 0 km/h

Legende:
   Min
   Max


Maximal/Minimal-Werte vom 01.06.2009 - 07.06.2009

Sensor Min Max Avg
Temp
(Aussen-T/F)
7.1 °C
06-06-2009  04:43:21
29.4 °C
01-06-2009  16:38:56
15.06 °C
Abs-Feuchte
(Aussen-T/F)
3.3 g/m*3
05-06-2009  17:18:22
12.69 g/m*3
01-06-2009  14:26:59
6.57 g/m*3
Windchill
(Aussen-T/F)
7.1 C
06-06-2009  04:43:21
29.4 C
01-06-2009  16:38:56
15.06 C

Die Daten stammen von einer Davis Vantage Pro 2 Wetter-Station und werden unter Linux mit der Software wview2wettercgi und aufbereitet. Alle Angaben erfolgen ohne Gewähr für ihre Vollständigkeit oder Richtigkeit.
Kontakt: Rainer Krienke krienke@uni-koblenz.de . Meine Webseiten an der Uni Koblenz oder privat.
Version: $Revision: 0.78 $